sensor_id;sensor_type;location;lat;lon;timestamp;temperature;humidity
3919;DHT22;1974;48.670;8.994;2023-04-29T00:00:01;12.40;99.90
3919;DHT22;1974;48.670;8.994;2023-04-29T00:02:28;12.40;99.90
3919;DHT22;1974;48.670;8.994;2023-04-29T00:04:57;12.40;99.90
3919;DHT22;1974;48.670;8.994;2023-04-29T00:07:23;12.30;99.90
3919;DHT22;1974;48.670;8.994;2023-04-29T00:09:50;12.30;99.90
3919;DHT22;1974;48.670;8.994;2023-04-29T00:12:17;12.30;99.90
3919;DHT22;1974;48.670;8.994;2023-04-29T00:14:44;12.30;99.90
3919;DHT22;1974;48.670;8.994;2023-04-29T00:17:11;12.30;99.90
3919;DHT22;1974;48.670;8.994;2023-04-29T00:19:38;12.30;99.90
3919;DHT22;1974;48.670;8.994;2023-04-29T00:22:06;12.30;99.90
3919;DHT22;1974;48.670;8.994;2023-04-29T00:24:33;12.30;99.90
3919;DHT22;1974;48.670;8.994;2023-04-29T00:27:00;12.30;99.90
3919;DHT22;1974;48.670;8.994;2023-04-29T00:29:27;12.30;99.90
3919;DHT22;1974;48.670;8.994;2023-04-29T00:31:54;12.30;99.90
3919;DHT22;1974;48.670;8.994;2023-04-29T00:34:21;12.30;99.90
3919;DHT22;1974;48.670;8.994;2023-04-29T00:36:48;12.30;99.90
3919;DHT22;1974;48.670;8.994;2023-04-29T00:39:16;12.30;99.90
3919;DHT22;1974;48.670;8.994;2023-04-29T00:41:43;12.30;99.90
3919;DHT22;1974;48.670;8.994;2023-04-29T00:44:10;12.30;99.90
3919;DHT22;1974;48.670;8.994;2023-04-29T00:46:36;12.30;99.90
3919;DHT22;1974;48.670;8.994;2023-04-29T00:49:03;12.30;99.90
3919;DHT22;1974;48.670;8.994;2023-04-29T00:51:30;12.30;99.90
3919;DHT22;1974;48.670;8.994;2023-04-29T00:53:57;12.30;99.90
3919;DHT22;1974;48.670;8.994;2023-04-29T00:56:26;12.20;99.90
3919;DHT22;1974;48.670;8.994;2023-04-29T00:58:56;12.20;99.90
3919;DHT22;1974;48.670;8.994;2023-04-29T01:01:24;12.20;99.90
3919;DHT22;1974;48.670;8.994;2023-04-29T01:03:50;12.20;99.90
3919;DHT22;1974;48.670;8.994;2023-04-29T01:06:25;12.20;99.90
3919;DHT22;1974;48.670;8.994;2023-04-29T01:09:07;12.30;99.90
3919;DHT22;1974;48.670;8.994;2023-04-29T01:11:43;12.20;99.90
3919;DHT22;1974;48.670;8.994;2023-04-29T01:14:14;12.30;99.90
3919;DHT22;1974;48.670;8.994;2023-04-29T01:16:44;12.20;99.90
3919;DHT22;1974;48.670;8.994;2023-04-29T01:19:18;12.20;99.90
3919;DHT22;1974;48.670;8.994;2023-04-29T01:21:48;12.20;99.90
3919;DHT22;1974;48.670;8.994;2023-04-29T01:24:16;12.30;99.90
3919;DHT22;1974;48.670;8.994;2023-04-29T01:29:34;12.20;99.90
3919;DHT22;1974;48.670;8.994;2023-04-29T01:32:07;12.20;99.90
3919;DHT22;1974;48.670;8.994;2023-04-29T01:34:43;12.20;99.90
3919;DHT22;1974;48.670;8.994;2023-04-29T01:37:18;12.20;99.90
3919;DHT22;1974;48.670;8.994;2023-04-29T01:39:55;12.20;99.90
3919;DHT22;1974;48.670;8.994;2023-04-29T01:42:27;12.20;99.90
3919;DHT22;1974;48.670;8.994;2023-04-29T01:44:56;12.20;99.90
3919;DHT22;1974;48.670;8.994;2023-04-29T01:47:26;12.20;99.90
3919;DHT22;1974;48.670;8.994;2023-04-29T01:49:55;12.20;99.90
3919;DHT22;1974;48.670;8.994;2023-04-29T01:52:21;12.20;99.90
3919;DHT22;1974;48.670;8.994;2023-04-29T01:54:49;12.10;99.90
3919;DHT22;1974;48.670;8.994;2023-04-29T01:57:16;12.10;99.90
3919;DHT22;1974;48.670;8.994;2023-04-29T01:59:43;12.10;99.90
3919;DHT22;1974;48.670;8.994;2023-04-29T02:02:10;12.10;99.90
3919;DHT22;1974;48.670;8.994;2023-04-29T02:04:39;12.00;99.90
3919;DHT22;1974;48.670;8.994;2023-04-29T02:07:07;12.00;99.90
3919;DHT22;1974;48.670;8.994;2023-04-29T02:09:34;12.00;99.90
3919;DHT22;1974;48.670;8.994;2023-04-29T02:12:02;12.00;99.90
3919;DHT22;1974;48.670;8.994;2023-04-29T02:14:29;12.00;99.90
3919;DHT22;1974;48.670;8.994;2023-04-29T02:16:56;12.00;99.90
3919;DHT22;1974;48.670;8.994;2023-04-29T02:19:22;12.00;99.90
3919;DHT22;1974;48.670;8.994;2023-04-29T02:21:49;12.00;99.90
3919;DHT22;1974;48.670;8.994;2023-04-29T02:24:16;12.00;99.90
3919;DHT22;1974;48.670;8.994;2023-04-29T02:26:43;12.00;99.90
3919;DHT22;1974;48.670;8.994;2023-04-29T02:29:11;12.00;99.90
3919;DHT22;1974;48.670;8.994;2023-04-29T02:31:37;12.00;99.90
3919;DHT22;1974;48.670;8.994;2023-04-29T02:34:04;12.00;99.90
3919;DHT22;1974;48.670;8.994;2023-04-29T02:36:31;12.00;99.90
3919;DHT22;1974;48.670;8.994;2023-04-29T02:38:57;12.00;99.90
3919;DHT22;1974;48.670;8.994;2023-04-29T02:41:25;12.00;99.90
3919;DHT22;1974;48.670;8.994;2023-04-29T02:43:51;12.00;99.90
3919;DHT22;1974;48.670;8.994;2023-04-29T02:46:19;12.00;99.90
3919;DHT22;1974;48.670;8.994;2023-04-29T02:48:46;11.90;99.90
3919;DHT22;1974;48.670;8.994;2023-04-29T02:51:13;11.90;99.90
3919;DHT22;1974;48.670;8.994;2023-04-29T02:53:39;11.90;99.90
3919;DHT22;1974;48.670;8.994;2023-04-29T02:56:06;11.90;99.90
3919;DHT22;1974;48.670;8.994;2023-04-29T02:58:33;11.90;99.90
3919;DHT22;1974;48.670;8.994;2023-04-29T03:01:00;11.80;99.90
3919;DHT22;1974;48.670;8.994;2023-04-29T03:03:28;11.80;99.90
3919;DHT22;1974;48.670;8.994;2023-04-29T03:05:55;11.80;99.90
3919;DHT22;1974;48.670;8.994;2023-04-29T03:08:22;11.70;99.90
3919;DHT22;1974;48.670;8.994;2023-04-29T03:10:48;11.70;99.90
3919;DHT22;1974;48.670;8.994;2023-04-29T03:13:15;11.70;99.90
3919;DHT22;1974;48.670;8.994;2023-04-29T03:15:42;11.60;99.90
3919;DHT22;1974;48.670;8.994;2023-04-29T03:18:09;11.60;99.90
3919;DHT22;1974;48.670;8.994;2023-04-29T03:20:37;11.60;99.90
3919;DHT22;1974;48.670;8.994;2023-04-29T03:23:04;11.60;99.90
3919;DHT22;1974;48.670;8.994;2023-04-29T03:25:31;11.50;99.90
3919;DHT22;1974;48.670;8.994;2023-04-29T03:27:57;11.50;99.90
3919;DHT22;1974;48.670;8.994;2023-04-29T03:30:24;11.50;99.90
3919;DHT22;1974;48.670;8.994;2023-04-29T03:32:51;11.50;99.90
3919;DHT22;1974;48.670;8.994;2023-04-29T03:35:17;11.50;99.90
3919;DHT22;1974;48.670;8.994;2023-04-29T03:37:45;11.50;99.90
3919;DHT22;1974;48.670;8.994;2023-04-29T03:40:12;11.50;99.90
3919;DHT22;1974;48.670;8.994;2023-04-29T03:42:39;11.40;99.90
3919;DHT22;1974;48.670;8.994;2023-04-29T03:45:07;11.40;99.90
3919;DHT22;1974;48.670;8.994;2023-04-29T03:47:35;11.40;99.90
3919;DHT22;1974;48.670;8.994;2023-04-29T03:50:02;11.50;99.90
3919;DHT22;1974;48.670;8.994;2023-04-29T03:52:28;11.40;99.90
3919;DHT22;1974;48.670;8.994;2023-04-29T03:54:57;11.40;99.90
3919;DHT22;1974;48.670;8.994;2023-04-29T03:57:23;11.40;99.90
3919;DHT22;1974;48.670;8.994;2023-04-29T03:59:50;11.40;99.90
3919;DHT22;1974;48.670;8.994;2023-04-29T04:02:17;11.40;99.90
3919;DHT22;1974;48.670;8.994;2023-04-29T04:04:43;11.40;99.90
3919;DHT22;1974;48.670;8.994;2023-04-29T04:07:11;11.40;99.90
3919;DHT22;1974;48.670;8.994;2023-04-29T04:09:38;11.40;99.90
3919;DHT22;1974;48.670;8.994;2023-04-29T04:12:06;11.40;99.90
3919;DHT22;1974;48.670;8.994;2023-04-29T04:14:33;11.40;99.90
3919;DHT22;1974;48.670;8.994;2023-04-29T04:17:00;11.40;99.90
3919;DHT22;1974;48.670;8.994;2023-04-29T04:19:26;11.30;99.90
3919;DHT22;1974;48.670;8.994;2023-04-29T04:21:53;11.30;99.90
3919;DHT22;1974;48.670;8.994;2023-04-29T04:24:20;11.30;99.90
3919;DHT22;1974;48.670;8.994;2023-04-29T04:26:47;11.30;99.90
3919;DHT22;1974;48.670;8.994;2023-04-29T04:29:15;11.30;99.90
3919;DHT22;1974;48.670;8.994;2023-04-29T04:31:42;11.20;99.90
3919;DHT22;1974;48.670;8.994;2023-04-29T04:34:09;11.30;99.90
3919;DHT22;1974;48.670;8.994;2023-04-29T04:36:36;11.30;99.90
3919;DHT22;1974;48.670;8.994;2023-04-29T04:39:03;11.20;99.90
3919;DHT22;1974;48.670;8.994;2023-04-29T04:41:30;11.30;99.90
3919;DHT22;1974;48.670;8.994;2023-04-29T04:43:57;11.30;99.90
3919;DHT22;1974;48.670;8.994;2023-04-29T04:46:25;11.40;99.90
3919;DHT22;1974;48.670;8.994;2023-04-29T04:48:51;11.40;99.90
3919;DHT22;1974;48.670;8.994;2023-04-29T04:51:18;11.40;99.90
3919;DHT22;1974;48.670;8.994;2023-04-29T04:53:45;11.40;99.90
3919;DHT22;1974;48.670;8.994;2023-04-29T04:56:12;11.40;99.90
3919;DHT22;1974;48.670;8.994;2023-04-29T04:58:38;11.40;99.90
3919;DHT22;1974;48.670;8.994;2023-04-29T05:01:05;11.40;99.90
3919;DHT22;1974;48.670;8.994;2023-04-29T05:03:33;11.40;99.90
3919;DHT22;1974;48.670;8.994;2023-04-29T05:06:00;11.50;99.90
3919;DHT22;1974;48.670;8.994;2023-04-29T05:08:27;11.50;99.90
3919;DHT22;1974;48.670;8.994;2023-04-29T05:10:54;11.50;99.90
3919;DHT22;1974;48.670;8.994;2023-04-29T05:13:21;11.50;99.90
3919;DHT22;1974;48.670;8.994;2023-04-29T05:15:49;11.60;99.90
3919;DHT22;1974;48.670;8.994;2023-04-29T05:18:16;11.60;99.90
3919;DHT22;1974;48.670;8.994;2023-04-29T05:20:44;11.60;99.90
3919;DHT22;1974;48.670;8.994;2023-04-29T05:23:11;11.60;99.90
3919;DHT22;1974;48.670;8.994;2023-04-29T05:25:37;11.60;99.90
3919;DHT22;1974;48.670;8.994;2023-04-29T05:28:04;11.70;99.90
3919;DHT22;1974;48.670;8.994;2023-04-29T05:30:32;11.70;99.90
3919;DHT22;1974;48.670;8.994;2023-04-29T05:32:59;11.80;99.90
3919;DHT22;1974;48.670;8.994;2023-04-29T05:35:26;11.80;99.90
3919;DHT22;1974;48.670;8.994;2023-04-29T05:37:54;11.90;99.90
3919;DHT22;1974;48.670;8.994;2023-04-29T05:40:20;12.00;99.90
3919;DHT22;1974;48.670;8.994;2023-04-29T05:42:48;12.00;99.90
3919;DHT22;1974;48.670;8.994;2023-04-29T05:45:15;12.10;99.90
3919;DHT22;1974;48.670;8.994;2023-04-29T05:47:41;12.20;99.90
3919;DHT22;1974;48.670;8.994;2023-04-29T05:50:09;12.30;99.90
3919;DHT22;1974;48.670;8.994;2023-04-29T05:52:35;12.50;99.90
3919;DHT22;1974;48.670;8.994;2023-04-29T05:55:04;12.70;99.90
3919;DHT22;1974;48.670;8.994;2023-04-29T05:57:31;12.90;99.90
3919;DHT22;1974;48.670;8.994;2023-04-29T05:59:58;13.10;99.90
3919;DHT22;1974;48.670;8.994;2023-04-29T06:02:25;13.40;99.90
3919;DHT22;1974;48.670;8.994;2023-04-29T06:04:51;13.70;99.90
3919;DHT22;1974;48.670;8.994;2023-04-29T06:07:18;14.10;99.90
3919;DHT22;1974;48.670;8.994;2023-04-29T06:09:45;14.50;99.90
3919;DHT22;1974;48.670;8.994;2023-04-29T06:12:13;14.90;99.90
3919;DHT22;1974;48.670;8.994;2023-04-29T06:14:40;15.40;99.90
3919;DHT22;1974;48.670;8.994;2023-04-29T06:17:07;15.90;99.90
3919;DHT22;1974;48.670;8.994;2023-04-29T06:19:33;16.30;99.90
3919;DHT22;1974;48.670;8.994;2023-04-29T06:22:00;16.90;99.90
3919;DHT22;1974;48.670;8.994;2023-04-29T06:24:27;17.40;99.90
3919;DHT22;1974;48.670;8.994;2023-04-29T06:26:54;17.30;99.90
3919;DHT22;1974;48.670;8.994;2023-04-29T06:29:22;17.30;99.90
3919;DHT22;1974;48.670;8.994;2023-04-29T06:31:48;17.10;99.90
3919;DHT22;1974;48.670;8.994;2023-04-29T06:34:15;16.80;99.90
3919;DHT22;1974;48.670;8.994;2023-04-29T06:36:42;16.70;99.90
3919;DHT22;1974;48.670;8.994;2023-04-29T06:39:09;16.50;99.90
3919;DHT22;1974;48.670;8.994;2023-04-29T06:41:35;16.40;99.90
3919;DHT22;1974;48.670;8.994;2023-04-29T06:44:02;16.70;99.90
3919;DHT22;1974;48.670;8.994;2023-04-29T06:46:31;17.30;99.90
3919;DHT22;1974;48.670;8.994;2023-04-29T06:48:58;17.90;99.90
3919;DHT22;1974;48.670;8.994;2023-04-29T06:51:25;18.70;99.90
3919;DHT22;1974;48.670;8.994;2023-04-29T06:53:52;18.80;99.90
3919;DHT22;1974;48.670;8.994;2023-04-29T06:56:19;18.60;99.90
3919;DHT22;1974;48.670;8.994;2023-04-29T06:58:46;18.30;99.90
3919;DHT22;1974;48.670;8.994;2023-04-29T07:01:12;18.00;99.90
3919;DHT22;1974;48.670;8.994;2023-04-29T07:03:41;17.70;99.90
3919;DHT22;1974;48.670;8.994;2023-04-29T07:06:09;17.40;99.90
3919;DHT22;1974;48.670;8.994;2023-04-29T07:08:35;17.00;99.90
3919;DHT22;1974;48.670;8.994;2023-04-29T07:11:02;16.70;99.90
3919;DHT22;1974;48.670;8.994;2023-04-29T07:13:29;16.60;99.90
3919;DHT22;1974;48.670;8.994;2023-04-29T07:15:56;16.50;99.90
3919;DHT22;1974;48.670;8.994;2023-04-29T07:18:23;16.20;99.90
3919;DHT22;1974;48.670;8.994;2023-04-29T07:20:51;16.00;99.90
3919;DHT22;1974;48.670;8.994;2023-04-29T07:23:20;15.70;99.90
3919;DHT22;1974;48.670;8.994;2023-04-29T07:25:46;15.40;99.90
3919;DHT22;1974;48.670;8.994;2023-04-29T07:28:13;15.30;99.90
3919;DHT22;1974;48.670;8.994;2023-04-29T07:30:40;15.20;99.90
3919;DHT22;1974;48.670;8.994;2023-04-29T07:33:06;15.20;99.90
3919;DHT22;1974;48.670;8.994;2023-04-29T07:35:33;15.60;99.90
3919;DHT22;1974;48.670;8.994;2023-04-29T07:38:01;16.30;99.90
3919;DHT22;1974;48.670;8.994;2023-04-29T07:40:28;17.10;99.90
3919;DHT22;1974;48.670;8.994;2023-04-29T07:42:55;17.80;99.90
3919;DHT22;1974;48.670;8.994;2023-04-29T07:45:22;18.20;99.90
3919;DHT22;1974;48.670;8.994;2023-04-29T07:47:48;18.10;99.90
3919;DHT22;1974;48.670;8.994;2023-04-29T07:50:15;18.90;99.90
3919;DHT22;1974;48.670;8.994;2023-04-29T07:52:42;19.70;99.90
3919;DHT22;1974;48.670;8.994;2023-04-29T07:55:10;20.10;99.90
3919;DHT22;1974;48.670;8.994;2023-04-29T07:57:37;20.30;99.90
3919;DHT22;1974;48.670;8.994;2023-04-29T08:00:05;20.20;99.90
3919;DHT22;1974;48.670;8.994;2023-04-29T08:02:32;20.30;99.90
3919;DHT22;1974;48.670;8.994;2023-04-29T08:04:59;20.20;99.90
3919;DHT22;1974;48.670;8.994;2023-04-29T08:07:26;19.90;99.90
3919;DHT22;1974;48.670;8.994;2023-04-29T08:09:53;19.60;99.90
3919;DHT22;1974;48.670;8.994;2023-04-29T08:12:21;19.30;99.90
3919;DHT22;1974;48.670;8.994;2023-04-29T08:14:48;19.10;99.90
3919;DHT22;1974;48.670;8.994;2023-04-29T08:17:15;18.70;99.90
3919;DHT22;1974;48.670;8.994;2023-04-29T08:19:41;18.50;99.90
3919;DHT22;1974;48.670;8.994;2023-04-29T08:22:09;18.40;99.90
3919;DHT22;1974;48.670;8.994;2023-04-29T08:24:36;18.30;99.90
3919;DHT22;1974;48.670;8.994;2023-04-29T08:27:03;18.50;99.90
3919;DHT22;1974;48.670;8.994;2023-04-29T08:29:31;18.90;99.90
3919;DHT22;1974;48.670;8.994;2023-04-29T08:31:58;19.20;99.90
3919;DHT22;1974;48.670;8.994;2023-04-29T08:34:25;19.50;99.90
3919;DHT22;1974;48.670;8.994;2023-04-29T08:36:52;19.40;99.90
3919;DHT22;1974;48.670;8.994;2023-04-29T08:39:19;19.30;99.90
3919;DHT22;1974;48.670;8.994;2023-04-29T08:41:45;19.00;99.90
3919;DHT22;1974;48.670;8.994;2023-04-29T08:44:15;18.80;99.90
3919;DHT22;1974;48.670;8.994;2023-04-29T08:46:45;18.90;99.90
3919;DHT22;1974;48.670;8.994;2023-04-29T08:49:12;19.00;99.90
3919;DHT22;1974;48.670;8.994;2023-04-29T08:51:39;19.10;99.90
3919;DHT22;1974;48.670;8.994;2023-04-29T08:54:06;19.10;99.90
3919;DHT22;1974;48.670;8.994;2023-04-29T08:56:33;19.00;99.90
3919;DHT22;1974;48.670;8.994;2023-04-29T08:59:01;18.90;99.90
3919;DHT22;1974;48.670;8.994;2023-04-29T09:01:29;18.70;99.90
3919;DHT22;1974;48.670;8.994;2023-04-29T09:04:03;18.60;99.90
3919;DHT22;1974;48.670;8.994;2023-04-29T09:06:34;18.60;99.90
3919;DHT22;1974;48.670;8.994;2023-04-29T09:09:02;18.80;99.90
3919;DHT22;1974;48.670;8.994;2023-04-29T09:11:29;18.80;99.90
3919;DHT22;1974;48.670;8.994;2023-04-29T09:13:58;18.90;99.90
3919;DHT22;1974;48.670;8.994;2023-04-29T09:16:25;19.10;99.90
3919;DHT22;1974;48.670;8.994;2023-04-29T09:18:52;19.00;99.90
3919;DHT22;1974;48.670;8.994;2023-04-29T09:21:22;18.80;99.90
3919;DHT22;1974;48.670;8.994;2023-04-29T09:23:50;18.50;99.90
3919;DHT22;1974;48.670;8.994;2023-04-29T09:26:17;18.20;99.90
3919;DHT22;1974;48.670;8.994;2023-04-29T09:28:44;17.90;99.90
3919;DHT22;1974;48.670;8.994;2023-04-29T09:31:12;17.60;99.90
3919;DHT22;1974;48.670;8.994;2023-04-29T09:33:52;17.50;99.90
3919;DHT22;1974;48.670;8.994;2023-04-29T09:36:45;17.50;99.90
3919;DHT22;1974;48.670;8.994;2023-04-29T09:39:14;17.70;99.90
3919;DHT22;1974;48.670;8.994;2023-04-29T09:41:56;17.70;99.90
3919;DHT22;1974;48.670;8.994;2023-04-29T09:44:25;17.50;99.90
3919;DHT22;1974;48.670;8.994;2023-04-29T09:46:56;17.50;99.90
3919;DHT22;1974;48.670;8.994;2023-04-29T09:49:24;17.50;99.90
3919;DHT22;1974;48.670;8.994;2023-04-29T09:51:54;17.60;99.90
3919;DHT22;1974;48.670;8.994;2023-04-29T09:54:22;17.90;99.90
3919;DHT22;1974;48.670;8.994;2023-04-29T09:56:49;18.30;99.90
3919;DHT22;1974;48.670;8.994;2023-04-29T09:59:17;18.40;99.90
3919;DHT22;1974;48.670;8.994;2023-04-29T10:01:45;18.50;99.90
3919;DHT22;1974;48.670;8.994;2023-04-29T10:04:15;18.60;99.90
3919;DHT22;1974;48.670;8.994;2023-04-29T10:06:43;18.70;99.90
3919;DHT22;1974;48.670;8.994;2023-04-29T10:09:12;18.80;99.90
3919;DHT22;1974;48.670;8.994;2023-04-29T10:11:41;19.00;99.90
3919;DHT22;1974;48.670;8.994;2023-04-29T10:14:12;19.10;99.90
3919;DHT22;1974;48.670;8.994;2023-04-29T10:16:44;19.40;99.90
3919;DHT22;1974;48.670;8.994;2023-04-29T10:19:11;19.80;99.90
3919;DHT22;1974;48.670;8.994;2023-04-29T10:21:40;20.00;99.90
3919;DHT22;1974;48.670;8.994;2023-04-29T10:24:09;20.30;99.90
3919;DHT22;1974;48.670;8.994;2023-04-29T10:26:41;20.20;99.90
3919;DHT22;1974;48.670;8.994;2023-04-29T10:29:10;20.10;99.90
3919;DHT22;1974;48.670;8.994;2023-04-29T10:31:40;19.90;99.90
3919;DHT22;1974;48.670;8.994;2023-04-29T10:34:08;19.60;99.90
3919;DHT22;1974;48.670;8.994;2023-04-29T10:36:36;19.10;99.90
3919;DHT22;1974;48.670;8.994;2023-04-29T10:39:04;19.10;99.90
3919;DHT22;1974;48.670;8.994;2023-04-29T10:41:36;19.60;99.90
3919;DHT22;1974;48.670;8.994;2023-04-29T10:44:10;20.30;99.90
3919;DHT22;1974;48.670;8.994;2023-04-29T10:46:37;21.10;99.90
3919;DHT22;1974;48.670;8.994;2023-04-29T10:49:05;20.90;99.90
3919;DHT22;1974;48.670;8.994;2023-04-29T10:51:33;20.70;99.90
3919;DHT22;1974;48.670;8.994;2023-04-29T10:54:02;20.10;99.90
3919;DHT22;1974;48.670;8.994;2023-04-29T10:56:43;19.50;99.90
3919;DHT22;1974;48.670;8.994;2023-04-29T10:59:15;19.10;99.90
3919;DHT22;1974;48.670;8.994;2023-04-29T11:01:47;18.70;99.90
3919;DHT22;1974;48.670;8.994;2023-04-29T11:04:15;18.60;99.90
3919;DHT22;1974;48.670;8.994;2023-04-29T11:06:46;18.60;99.90
3919;DHT22;1974;48.670;8.994;2023-04-29T11:09:18;18.60;99.90
3919;DHT22;1974;48.670;8.994;2023-04-29T11:11:48;18.80;99.90
3919;DHT22;1974;48.670;8.994;2023-04-29T11:14:23;18.90;99.90
3919;DHT22;1974;48.670;8.994;2023-04-29T11:16:52;18.90;99.90
3919;DHT22;1974;48.670;8.994;2023-04-29T11:19:20;18.80;99.90
3919;DHT22;1974;48.670;8.994;2023-04-29T11:22:12;18.70;99.90
3919;DHT22;1974;48.670;8.994;2023-04-29T11:24:49;18.60;99.90
3919;DHT22;1974;48.670;8.994;2023-04-29T11:27:17;18.70;99.90
3919;DHT22;1974;48.670;8.994;2023-04-29T11:29:46;18.90;99.90
3919;DHT22;1974;48.670;8.994;2023-04-29T11:32:12;18.90;99.90
3919;DHT22;1974;48.670;8.994;2023-04-29T11:34:39;18.70;99.90
3919;DHT22;1974;48.670;8.994;2023-04-29T11:37:06;18.60;99.90
3919;DHT22;1974;48.670;8.994;2023-04-29T11:39:33;18.60;99.90
3919;DHT22;1974;48.670;8.994;2023-04-29T11:42:04;18.70;99.90
3919;DHT22;1974;48.670;8.994;2023-04-29T11:44:33;18.60;99.90
3919;DHT22;1974;48.670;8.994;2023-04-29T11:47:04;18.60;99.90
3919;DHT22;1974;48.670;8.994;2023-04-29T11:49:31;18.50;99.90
3919;DHT22;1974;48.670;8.994;2023-04-29T11:51:59;18.50;99.90
3919;DHT22;1974;48.670;8.994;2023-04-29T11:54:26;18.30;99.90
3919;DHT22;1974;48.670;8.994;2023-04-29T11:56:53;18.30;99.90
3919;DHT22;1974;48.670;8.994;2023-04-29T11:59:21;18.30;99.90
3919;DHT22;1974;48.670;8.994;2023-04-29T12:01:48;18.30;99.90
3919;DHT22;1974;48.670;8.994;2023-04-29T12:04:16;18.10;99.90
3919;DHT22;1974;48.670;8.994;2023-04-29T12:06:44;18.00;99.90
3919;DHT22;1974;48.670;8.994;2023-04-29T12:09:11;17.90;99.90
3919;DHT22;1974;48.670;8.994;2023-04-29T12:11:39;17.80;99.90
3919;DHT22;1974;48.670;8.994;2023-04-29T12:14:06;17.80;99.90
3919;DHT22;1974;48.670;8.994;2023-04-29T12:16:33;17.80;99.90
3919;DHT22;1974;48.670;8.994;2023-04-29T12:19:00;17.80;99.90
3919;DHT22;1974;48.670;8.994;2023-04-29T12:21:28;17.90;99.90
3919;DHT22;1974;48.670;8.994;2023-04-29T12:23:58;18.10;99.90
3919;DHT22;1974;48.670;8.994;2023-04-29T12:26:26;18.30;99.90
3919;DHT22;1974;48.670;8.994;2023-04-29T12:28:56;18.50;99.90
3919;DHT22;1974;48.670;8.994;2023-04-29T12:31:31;18.70;99.90
3919;DHT22;1974;48.670;8.994;2023-04-29T12:33:58;19.00;99.90
3919;DHT22;1974;48.670;8.994;2023-04-29T12:36:27;19.20;99.90
3919;DHT22;1974;48.670;8.994;2023-04-29T12:38:55;19.50;99.90
3919;DHT22;1974;48.670;8.994;2023-04-29T12:41:35;19.60;99.90
3919;DHT22;1974;48.670;8.994;2023-04-29T12:44:03;19.70;99.90
3919;DHT22;1974;48.670;8.994;2023-04-29T12:46:33;19.50;99.90
3919;DHT22;1974;48.670;8.994;2023-04-29T12:49:01;19.40;99.90
3919;DHT22;1974;48.670;8.994;2023-04-29T12:51:28;19.30;99.90
3919;DHT22;1974;48.670;8.994;2023-04-29T12:53:58;19.40;99.90
3919;DHT22;1974;48.670;8.994;2023-04-29T12:56:24;19.30;99.90
3919;DHT22;1974;48.670;8.994;2023-04-29T12:58:51;19.10;99.90
3919;DHT22;1974;48.670;8.994;2023-04-29T13:01:18;18.80;99.90
3919;DHT22;1974;48.670;8.994;2023-04-29T13:03:45;18.50;99.90
3919;DHT22;1974;48.670;8.994;2023-04-29T13:06:12;18.30;99.90
3919;DHT22;1974;48.670;8.994;2023-04-29T13:08:38;18.20;99.90
3919;DHT22;1974;48.670;8.994;2023-04-29T13:11:07;18.10;99.90
3919;DHT22;1974;48.670;8.994;2023-04-29T13:13:34;18.10;99.90
3919;DHT22;1974;48.670;8.994;2023-04-29T13:16:01;18.00;99.90
3919;DHT22;1974;48.670;8.994;2023-04-29T13:18:27;17.90;99.90
3919;DHT22;1974;48.670;8.994;2023-04-29T13:20:54;17.80;99.90
3919;DHT22;1974;48.670;8.994;2023-04-29T13:23:21;17.70;99.90
3919;DHT22;1974;48.670;8.994;2023-04-29T13:25:49;17.50;99.90
3919;DHT22;1974;48.670;8.994;2023-04-29T13:28:17;17.40;99.90
3919;DHT22;1974;48.670;8.994;2023-04-29T13:30:44;17.30;99.90
3919;DHT22;1974;48.670;8.994;2023-04-29T13:33:10;17.20;99.90
3919;DHT22;1974;48.670;8.994;2023-04-29T13:35:37;17.10;99.90
3919;DHT22;1974;48.670;8.994;2023-04-29T13:38:05;17.00;99.90
3919;DHT22;1974;48.670;8.994;2023-04-29T13:40:32;16.90;99.90
3919;DHT22;1974;48.670;8.994;2023-04-29T13:42:59;16.80;99.90
3919;DHT22;1974;48.670;8.994;2023-04-29T13:45:27;16.80;99.90
3919;DHT22;1974;48.670;8.994;2023-04-29T13:47:54;16.60;99.90
3919;DHT22;1974;48.670;8.994;2023-04-29T13:50:20;16.60;99.90
3919;DHT22;1974;48.670;8.994;2023-04-29T13:52:47;16.60;99.90
3919;DHT22;1974;48.670;8.994;2023-04-29T13:55:14;16.50;99.90
3919;DHT22;1974;48.670;8.994;2023-04-29T13:57:40;16.30;99.90
3919;DHT22;1974;48.670;8.994;2023-04-29T14:00:08;16.20;99.90
3919;DHT22;1974;48.670;8.994;2023-04-29T14:02:37;16.20;99.90
3919;DHT22;1974;48.670;8.994;2023-04-29T14:05:04;16.20;99.90
3919;DHT22;1974;48.670;8.994;2023-04-29T14:07:31;16.30;99.90
3919;DHT22;1974;48.670;8.994;2023-04-29T14:09:58;16.20;99.90
3919;DHT22;1974;48.670;8.994;2023-04-29T14:12:25;16.30;99.90
3919;DHT22;1974;48.670;8.994;2023-04-29T14:14:52;16.20;99.90
3919;DHT22;1974;48.670;8.994;2023-04-29T14:17:19;16.20;99.90
3919;DHT22;1974;48.670;8.994;2023-04-29T14:19:47;16.10;99.90
3919;DHT22;1974;48.670;8.994;2023-04-29T14:22:13;16.10;99.90
3919;DHT22;1974;48.670;8.994;2023-04-29T14:24:40;16.10;99.90
3919;DHT22;1974;48.670;8.994;2023-04-29T14:27:07;16.10;99.90
3919;DHT22;1974;48.670;8.994;2023-04-29T14:29:34;16.00;99.90
3919;DHT22;1974;48.670;8.994;2023-04-29T14:32:00;15.90;99.90
3919;DHT22;1974;48.670;8.994;2023-04-29T14:34:27;15.90;99.90
3919;DHT22;1974;48.670;8.994;2023-04-29T14:36:55;15.80;99.90
3919;DHT22;1974;48.670;8.994;2023-04-29T14:39:23;15.90;99.90
3919;DHT22;1974;48.670;8.994;2023-04-29T14:41:50;15.90;99.90
3919;DHT22;1974;48.670;8.994;2023-04-29T14:44:17;16.00;99.90
3919;DHT22;1974;48.670;8.994;2023-04-29T14:46:43;16.10;99.90
3919;DHT22;1974;48.670;8.994;2023-04-29T14:49:10;16.20;99.90
3919;DHT22;1974;48.670;8.994;2023-04-29T14:51:37;16.20;99.90
3919;DHT22;1974;48.670;8.994;2023-04-29T14:54:05;16.10;99.90
3919;DHT22;1974;48.670;8.994;2023-04-29T14:56:33;16.10;99.90
3919;DHT22;1974;48.670;8.994;2023-04-29T14:59:01;16.10;99.90
3919;DHT22;1974;48.670;8.994;2023-04-29T15:01:27;16.10;99.90
3919;DHT22;1974;48.670;8.994;2023-04-29T15:03:54;16.10;99.90
3919;DHT22;1974;48.670;8.994;2023-04-29T15:06:21;16.10;99.90
3919;DHT22;1974;48.670;8.994;2023-04-29T15:08:47;15.90;99.90
3919;DHT22;1974;48.670;8.994;2023-04-29T15:11:16;15.80;99.90
3919;DHT22;1974;48.670;8.994;2023-04-29T15:13:42;15.70;99.90
3919;DHT22;1974;48.670;8.994;2023-04-29T15:16:09;15.70;99.90
3919;DHT22;1974;48.670;8.994;2023-04-29T15:18:36;15.60;99.90
3919;DHT22;1974;48.670;8.994;2023-04-29T15:21:03;15.60;99.90
3919;DHT22;1974;48.670;8.994;2023-04-29T15:23:29;15.60;99.90
3919;DHT22;1974;48.670;8.994;2023-04-29T15:25:57;15.50;99.90
3919;DHT22;1974;48.670;8.994;2023-04-29T15:28:25;15.50;99.90
3919;DHT22;1974;48.670;8.994;2023-04-29T15:30:52;15.60;99.90
3919;DHT22;1974;48.670;8.994;2023-04-29T15:33:19;15.60;99.90
3919;DHT22;1974;48.670;8.994;2023-04-29T15:35:45;15.60;99.90
3919;DHT22;1974;48.670;8.994;2023-04-29T15:38:12;15.60;99.90
3919;DHT22;1974;48.670;8.994;2023-04-29T15:40:39;15.60;99.90
3919;DHT22;1974;48.670;8.994;2023-04-29T15:43:06;15.70;99.90
3919;DHT22;1974;48.670;8.994;2023-04-29T15:45:34;15.70;99.90
3919;DHT22;1974;48.670;8.994;2023-04-29T15:48:00;15.70;99.90
3919;DHT22;1974;48.670;8.994;2023-04-29T15:50:27;15.70;99.90
3919;DHT22;1974;48.670;8.994;2023-04-29T15:52:54;15.80;99.90
3919;DHT22;1974;48.670;8.994;2023-04-29T15:55:23;15.80;99.90
3919;DHT22;1974;48.670;8.994;2023-04-29T15:57:49;15.70;99.90
3919;DHT22;1974;48.670;8.994;2023-04-29T16:00:16;15.60;99.90
3919;DHT22;1974;48.670;8.994;2023-04-29T16:02:45;15.50;99.90
3919;DHT22;1974;48.670;8.994;2023-04-29T16:05:11;15.40;99.90
3919;DHT22;1974;48.670;8.994;2023-04-29T16:07:38;15.30;99.90